createdAt,value
2022-09-03T00:00:03.939Z,15.80
2022-09-03T00:02:45.652Z,15.90
2022-09-03T00:05:18.464Z,16.00
2022-09-03T00:08:14.968Z,16.00
2022-09-03T00:11:07.093Z,16.10
2022-09-03T00:13:36.902Z,16.40
2022-09-03T00:16:11.055Z,16.10
2022-09-03T00:18:46.331Z,16.10
2022-09-03T00:21:16.065Z,16.10
2022-09-03T00:23:43.235Z,16.10
2022-09-03T00:26:13.241Z,13.90
2022-09-03T00:28:45.930Z,16.10
2022-09-03T00:31:24.700Z,16.10
2022-09-03T00:33:51.904Z,15.90
2022-09-03T00:36:21.345Z,15.90
2022-09-03T00:38:48.167Z,15.70
2022-09-03T00:41:38.619Z,15.70
2022-09-03T00:44:32.980Z,15.60
2022-09-03T00:47:18.759Z,15.50
2022-09-03T00:49:57.683Z,15.50
2022-09-03T00:52:51.027Z,15.40
2022-09-03T00:55:29.793Z,15.30
2022-09-03T00:58:11.679Z,15.30
2022-09-03T01:00:40.116Z,15.20
2022-09-03T01:03:28.538Z,15.20
2022-09-03T01:06:07.789Z,15.10
2022-09-03T01:08:50.960Z,15.10
2022-09-03T01:11:26.254Z,15.00
2022-09-03T01:14:17.328Z,15.00
2022-09-03T01:16:46.733Z,15.00
2022-09-03T01:19:48.393Z,15.80
2022-09-03T01:22:29.231Z,14.40
2022-09-03T01:25:05.980Z,15.00
2022-09-03T01:27:47.292Z,15.10
2022-09-03T01:30:18.532Z,15.10
2022-09-03T01:33:11.195Z,15.10
2022-09-03T01:35:38.643Z,15.10
2022-09-03T01:38:24.623Z,15.10
2022-09-03T01:41:20.854Z,15.10
2022-09-03T01:44:09.885Z,15.20
2022-09-03T01:46:40.236Z,15.10
2022-09-03T01:49:22.779Z,15.10
2022-09-03T01:52:00.886Z,15.10
2022-09-03T01:54:50.526Z,15.50
2022-09-03T01:57:35.886Z,13.20
2022-09-03T02:00:15.295Z,15.20
2022-09-03T02:02:44.280Z,15.10
2022-09-03T02:05:24.682Z,15.40
2022-09-03T02:07:59.244Z,15.20
2022-09-03T02:10:33.262Z,15.20
2022-09-03T02:13:14.703Z,15.20
2022-09-03T02:15:43.773Z,15.20
2022-09-03T02:18:13.975Z,15.40
2022-09-03T02:20:40.775Z,15.30
2022-09-03T02:23:07.645Z,15.30
2022-09-03T02:25:37.825Z,15.30
2022-09-03T02:28:05.738Z,15.30
2022-09-03T02:30:38.047Z,15.40
2022-09-03T02:33:04.960Z,15.40
2022-09-03T02:35:31.821Z,15.40
2022-09-03T02:38:08.963Z,15.50
2022-09-03T02:40:35.977Z,15.40
2022-09-03T02:43:04.291Z,15.50
2022-09-03T02:45:31.607Z,15.40
2022-09-03T02:48:00.787Z,15.30
2022-09-03T02:50:27.648Z,15.30
2022-09-03T02:52:54.646Z,15.30
2022-09-03T02:55:21.515Z,15.30
2022-09-03T02:57:48.380Z,15.40
2022-09-03T03:00:15.493Z,15.30
2022-09-03T03:06:36.852Z,15.40
2022-09-03T03:09:05.904Z,16.10
2022-09-03T03:11:33.212Z,15.30
2022-09-03T03:14:00.029Z,15.60
2022-09-03T03:16:26.928Z,15.30
2022-09-03T03:18:54.077Z,16.10
2022-09-03T03:21:20.894Z,15.30
2022-09-03T03:23:47.713Z,15.90
2022-09-03T03:26:18.471Z,15.80
2022-09-03T03:28:46.920Z,15.30
2022-09-03T03:31:18.557Z,15.70
2022-09-03T03:33:45.587Z,15.30
2022-09-03T03:36:14.524Z,15.30
2022-09-03T03:38:42.169Z,16.30
2022-09-03T03:41:12.648Z,15.40
2022-09-03T03:43:39.515Z,15.40
2022-09-03T03:46:06.573Z,15.50
2022-09-03T03:48:33.506Z,15.60
2022-09-03T03:51:02.021Z,15.70
2022-09-03T03:53:28.844Z,16.90
2022-09-03T03:55:57.082Z,15.70
2022-09-03T03:58:24.274Z,15.70
2022-09-03T04:00:53.540Z,15.80
2022-09-03T04:03:20.598Z,15.70
2022-09-03T04:05:57.274Z,16.30
2022-09-03T04:08:24.205Z,15.60
2022-09-03T04:10:51.404Z,15.70
2022-09-03T04:13:18.382Z,15.80
2022-09-03T04:15:45.262Z,15.50
2022-09-03T04:18:12.176Z,15.50
2022-09-03T04:20:39.108Z,15.70
2022-09-03T04:23:06.169Z,15.50
2022-09-03T04:25:33.279Z,15.50
2022-09-03T04:28:00.423Z,15.60
2022-09-03T04:30:27.820Z,15.50
2022-09-03T04:32:55.018Z,15.50
2022-09-03T04:35:25.885Z,16.30
2022-09-03T04:37:55.257Z,15.50
2022-09-03T04:40:22.070Z,15.50
2022-09-03T04:42:49.096Z,15.50
2022-09-03T04:45:18.751Z,15.80
2022-09-03T04:47:56.117Z,15.60
2022-09-03T04:50:23.588Z,15.60
2022-09-03T04:53:07.083Z,15.70
2022-09-03T04:55:35.650Z,15.80
2022-09-03T04:58:02.487Z,15.70
2022-09-03T05:00:29.538Z,15.70
2022-09-03T05:02:56.420Z,15.70
2022-09-03T05:05:23.404Z,15.70
2022-09-03T05:07:50.303Z,15.60
2022-09-03T05:10:20.483Z,15.60
2022-09-03T05:12:48.418Z,15.60
2022-09-03T05:15:15.518Z,15.60
2022-09-03T05:17:42.389Z,15.50
2022-09-03T05:20:10.171Z,15.50
2022-09-03T05:22:37.049Z,15.50
2022-09-03T05:25:04.324Z,15.50
2022-09-03T05:27:31.877Z,15.40
2022-09-03T05:29:58.924Z,15.60
2022-09-03T05:32:28.130Z,15.40
2022-09-03T05:34:55.068Z,15.40
2022-09-03T05:37:23.275Z,15.40
2022-09-03T05:39:50.223Z,15.50
2022-09-03T05:42:17.244Z,15.60
2022-09-03T05:44:44.176Z,15.60
2022-09-03T05:47:11.531Z,15.60
2022-09-03T05:49:38.811Z,15.70
2022-09-03T05:52:05.683Z,15.70
2022-09-03T05:54:32.598Z,15.70
2022-09-03T05:56:59.465Z,15.80
2022-09-03T05:59:26.436Z,15.80
2022-09-03T06:01:58.110Z,15.80
2022-09-03T06:04:26.916Z,15.80
2022-09-03T06:06:53.854Z,15.90
2022-09-03T06:09:21.256Z,15.80
2022-09-03T06:11:50.397Z,15.90
2022-09-03T06:14:19.518Z,15.80
2022-09-03T06:16:49.782Z,15.80
2022-09-03T06:19:16.917Z,15.80
2022-09-03T06:21:44.762Z,15.80
2022-09-03T06:24:16.487Z,15.80
2022-09-03T06:26:43.436Z,15.80
2022-09-03T06:29:11.266Z,15.80
2022-09-03T06:31:38.187Z,15.90
2022-09-03T06:34:06.050Z,16.00
2022-09-03T06:36:33.049Z,16.10
2022-09-03T06:38:59.944Z,16.10
2022-09-03T06:41:28.506Z,16.20
2022-09-03T06:44:03.379Z,16.30
2022-09-03T06:46:35.042Z,16.40
2022-09-03T06:49:02.063Z,16.60
2022-09-03T06:51:30.047Z,16.60
2022-09-03T06:54:02.064Z,16.70
2022-09-03T06:56:28.947Z,16.90
2022-09-03T06:58:57.392Z,17.00
2022-09-03T07:01:25.956Z,17.10
2022-09-03T07:03:57.131Z,17.20
2022-09-03T07:06:25.612Z,17.30
2022-09-03T07:08:52.646Z,17.30
2022-09-03T07:11:22.669Z,17.40
2022-09-03T07:13:50.581Z,17.50
2022-09-03T07:16:18.594Z,17.60
2022-09-03T07:18:45.707Z,17.70
2022-09-03T07:21:14.350Z,17.80
2022-09-03T07:23:41.551Z,17.80
2022-09-03T07:26:13.924Z,17.90
2022-09-03T07:28:41.435Z,18.10
2022-09-03T07:31:11.729Z,18.20
2022-09-03T07:33:39.375Z,18.20
2022-09-03T07:36:08.047Z,18.30
2022-09-03T07:38:35.153Z,18.40
2022-09-03T07:41:03.504Z,18.40
2022-09-03T07:43:33.892Z,18.50
2022-09-03T07:46:01.310Z,18.60
2022-09-03T07:48:28.200Z,18.60
2022-09-03T07:51:03.890Z,18.70
2022-09-03T07:53:30.930Z,18.80
2022-09-03T07:56:08.177Z,18.90
2022-09-03T07:58:35.330Z,19.10
2022-09-03T08:01:11.224Z,19.10
2022-09-03T08:03:39.249Z,19.20
2022-09-03T08:06:07.204Z,19.10
2022-09-03T08:08:36.393Z,19.10
2022-09-03T08:11:11.005Z,19.10
2022-09-03T08:13:39.348Z,19.00
2022-09-03T08:16:06.950Z,18.90
2022-09-03T08:18:39.402Z,18.90
2022-09-03T08:21:12.362Z,18.80
2022-09-03T08:23:39.923Z,18.70
2022-09-03T08:26:07.099Z,18.90
2022-09-03T08:28:37.370Z,18.60
2022-09-03T08:31:28.365Z,18.50
2022-09-03T08:33:56.540Z,18.50
2022-09-03T08:36:27.022Z,18.40
2022-09-03T08:38:56.977Z,18.30
2022-09-03T08:41:49.165Z,18.20
2022-09-03T08:44:38.018Z,18.10
2022-09-03T08:47:32.513Z,18.00
2022-09-03T08:50:05.320Z,17.90
2022-09-03T08:52:52.401Z,17.80
2022-09-03T08:55:23.893Z,17.70
2022-09-03T08:57:53.431Z,17.60
2022-09-03T09:00:20.303Z,17.60
2022-09-03T09:02:56.710Z,17.50
2022-09-03T09:05:45.668Z,17.50
2022-09-03T09:08:26.468Z,17.40
2022-09-03T09:11:06.701Z,17.30
2022-09-03T09:13:51.703Z,17.20
2022-09-03T09:16:48.023Z,17.10
2022-09-03T09:19:38.003Z,17.10
2022-09-03T09:22:34.079Z,17.00
2022-09-03T09:25:03.543Z,16.90
2022-09-03T09:27:30.441Z,16.90
2022-09-03T09:29:57.280Z,16.90
2022-09-03T09:32:24.733Z,16.80
2022-09-03T09:34:53.290Z,16.80
2022-09-03T09:37:20.255Z,16.80
2022-09-03T09:39:57.982Z,16.80
2022-09-03T09:42:25.090Z,16.70
2022-09-03T09:44:52.055Z,16.60
2022-09-03T09:47:34.747Z,16.60
2022-09-03T09:50:26.531Z,16.50
2022-09-03T09:53:14.617Z,16.50
2022-09-03T09:55:50.897Z,16.50
2022-09-03T09:58:20.015Z,16.50
2022-09-03T10:00:59.899Z,16.40
2022-09-03T10:03:29.883Z,16.40
2022-09-03T10:06:25.654Z,16.30
2022-09-03T10:08:54.539Z,16.30
2022-09-03T10:11:24.174Z,16.30
2022-09-03T10:13:51.106Z,16.30
2022-09-03T10:16:30.040Z,16.30
2022-09-03T10:19:23.907Z,16.20
2022-09-03T10:21:55.031Z,16.20
2022-09-03T10:24:41.992Z,16.20
2022-09-03T10:27:12.174Z,16.10
2022-09-03T10:29:40.454Z,16.10
2022-09-03T10:32:37.856Z,16.00
2022-09-03T10:35:32.086Z,16.00
2022-09-03T10:38:06.632Z,15.90
2022-09-03T10:40:39.742Z,15.90
2022-09-03T10:43:33.236Z,15.90
2022-09-03T10:46:07.319Z,16.00
2022-09-03T10:48:44.583Z,16.00
2022-09-03T10:51:21.663Z,16.10
2022-09-03T10:53:57.636Z,16.20
2022-09-03T10:56:38.268Z,16.30
2022-09-03T10:59:17.359Z,16.30
2022-09-03T11:01:59.100Z,16.50
2022-09-03T11:04:51.828Z,16.70
2022-09-03T11:07:21.637Z,16.90
2022-09-03T11:09:51.278Z,17.20
2022-09-03T11:12:39.016Z,17.60
2022-09-03T11:15:33.935Z,18.00
2022-09-03T11:18:29.905Z,18.30
2022-09-03T11:21:01.963Z,18.40
2022-09-03T11:23:29.921Z,18.50
2022-09-03T11:26:01.419Z,18.60
2022-09-03T11:28:53.329Z,18.80
2022-09-03T11:31:35.112Z,18.90
2022-09-03T11:34:22.172Z,18.90
2022-09-03T11:36:50.678Z,18.90
2022-09-03T11:39:32.991Z,18.90
2022-09-03T11:42:07.122Z,18.90
2022-09-03T11:44:40.642Z,18.90
2022-09-03T11:47:36.814Z,18.80
2022-09-03T11:50:20.777Z,17.20
2022-09-03T11:52:49.079Z,18.90
2022-09-03T11:55:26.894Z,19.00
2022-09-03T11:57:57.558Z,19.10
2022-09-03T12:00:25.299Z,19.30
2022-09-03T12:02:58.932Z,19.40
2022-09-03T12:05:38.183Z,19.60
2022-09-03T12:08:49.235Z,19.80
2022-09-03T12:11:53.755Z,20.00
2022-09-03T12:14:35.624Z,20.00
2022-09-03T12:17:17.621Z,20.00
2022-09-03T12:19:53.012Z,20.00
2022-09-03T12:22:21.278Z,20.10
2022-09-03T12:24:49.276Z,20.10
2022-09-03T12:27:25.091Z,20.20
2022-09-03T12:30:00.921Z,20.30
2022-09-03T12:32:32.473Z,20.40
2022-09-03T12:35:13.716Z,20.50
2022-09-03T12:40:32.196Z,20.80
2022-09-03T12:46:14.550Z,20.90
2022-09-03T12:51:52.190Z,21.20
2022-09-03T12:54:21.394Z,21.20
2022-09-03T12:56:54.134Z,21.20
2022-09-03T12:59:21.066Z,21.30
2022-09-03T13:01:53.471Z,21.30
2022-09-03T13:04:26.891Z,21.40
2022-09-03T13:06:56.854Z,21.50
2022-09-03T13:09:24.575Z,21.30
2022-09-03T13:11:52.599Z,21.20
2022-09-03T13:14:20.323Z,21.20
2022-09-03T13:16:47.501Z,21.30
2022-09-03T13:19:54.439Z,21.30
2022-09-03T13:22:27.761Z,21.30
2022-09-03T13:25:16.854Z,21.30
2022-09-03T13:28:00.717Z,21.40
2022-09-03T13:31:06.081Z,21.50
2022-09-03T13:33:36.088Z,21.60
2022-09-03T13:36:17.067Z,21.70
2022-09-03T13:39:06.107Z,21.80
2022-09-03T13:41:44.102Z,21.90
2022-09-03T13:44:42.919Z,22.00
2022-09-03T13:47:32.959Z,22.10
2022-09-03T13:50:24.710Z,22.20
2022-09-03T13:53:22.757Z,22.30
2022-09-03T13:55:53.357Z,22.30
2022-09-03T13:58:45.318Z,22.30
2022-09-03T14:01:20.445Z,22.20
2022-09-03T14:03:55.221Z,22.10
2022-09-03T14:06:34.215Z,21.90
2022-09-03T14:09:34.919Z,21.80
2022-09-03T14:12:14.573Z,21.70
2022-09-03T14:15:20.923Z,21.90
2022-09-03T14:18:02.912Z,22.00
2022-09-03T14:21:03.326Z,22.10
2022-09-03T14:23:55.069Z,22.10
2022-09-03T14:26:38.735Z,22.40
2022-09-03T14:29:12.878Z,22.80
2022-09-03T14:32:01.025Z,23.30
2022-09-03T14:34:52.790Z,23.70
2022-09-03T14:37:22.693Z,24.10
2022-09-03T14:39:53.536Z,24.20
2022-09-03T14:42:24.112Z,24.30
2022-09-03T14:45:15.788Z,24.40
2022-09-03T14:47:52.144Z,24.30
2022-09-03T14:50:43.878Z,24.20
2022-09-03T14:53:29.557Z,24.10
2022-09-03T14:56:05.906Z,23.70
2022-09-03T14:58:39.809Z,23.20
2022-09-03T15:01:31.551Z,22.70
2022-09-03T15:04:31.869Z,22.40
2022-09-03T15:07:23.320Z,22.20
2022-09-03T15:10:13.846Z,22.10
2022-09-03T15:12:41.202Z,22.20
2022-09-03T15:19:49.056Z,22.60
2022-09-03T15:22:26.507Z,22.80
2022-09-03T15:25:34.328Z,23.10
2022-09-03T15:28:35.771Z,23.50
2022-09-03T15:31:04.692Z,24.20
2022-09-03T15:33:49.834Z,24.80
2022-09-03T15:36:27.154Z,25.30
2022-09-03T15:39:13.531Z,25.90
2022-09-03T15:41:41.877Z,26.40
2022-09-03T15:44:19.169Z,26.90
2022-09-03T15:46:57.053Z,27.20
2022-09-03T15:49:32.076Z,27.40
2022-09-03T15:52:30.131Z,27.70
2022-09-03T15:55:22.940Z,27.70
2022-09-03T15:57:51.850Z,27.70
2022-09-03T16:00:21.856Z,27.70
2022-09-03T16:02:58.996Z,27.70
2022-09-03T16:05:39.239Z,27.60
2022-09-03T16:08:46.893Z,27.50
2022-09-03T16:11:18.179Z,27.40
2022-09-03T16:13:50.935Z,27.10
2022-09-03T16:16:27.177Z,26.80
2022-09-03T16:19:25.300Z,26.20
2022-09-03T16:22:27.351Z,25.50
2022-09-03T16:25:02.521Z,24.60
2022-09-03T16:27:42.586Z,23.80
2022-09-03T16:30:21.921Z,23.30
2022-09-03T16:33:16.786Z,22.80
2022-09-03T16:35:51.368Z,22.40
2022-09-03T16:38:30.179Z,21.90
2022-09-03T16:41:33.459Z,21.50
2022-09-03T16:44:28.744Z,21.00
2022-09-03T16:47:09.439Z,20.70
2022-09-03T16:49:50.893Z,20.40
2022-09-03T16:52:37.788Z,20.10
2022-09-03T16:55:14.049Z,19.90
2022-09-03T16:58:09.730Z,19.70
2022-09-03T17:01:08.470Z,19.50
2022-09-03T17:04:30.160Z,19.30
2022-09-03T17:07:06.130Z,19.10
2022-09-03T17:09:56.035Z,19.00
2022-09-03T17:12:38.586Z,18.90
2022-09-03T17:15:29.433Z,18.70
2022-09-03T17:18:18.549Z,18.60
2022-09-03T17:21:10.117Z,18.40
2022-09-03T17:23:40.023Z,18.40
2022-09-03T17:26:19.844Z,18.30
2022-09-03T17:29:05.323Z,18.20
2022-09-03T17:32:11.951Z,18.10
2022-09-03T17:35:00.454Z,18.00
2022-09-03T17:37:36.126Z,18.00
2022-09-03T17:40:40.419Z,18.00
2022-09-03T17:43:41.409Z,17.90
2022-09-03T17:46:26.526Z,17.80
2022-09-03T17:48:53.896Z,17.80
2022-09-03T17:51:41.608Z,17.80
2022-09-03T17:54:24.721Z,17.60
2022-09-03T17:56:56.568Z,17.60
2022-09-03T17:59:41.961Z,17.60
2022-09-03T18:02:30.866Z,17.50
2022-09-03T18:05:00.672Z,17.40
2022-09-03T18:07:44.425Z,17.30
2022-09-03T18:10:26.515Z,17.30
2022-09-03T18:13:04.661Z,17.20
2022-09-03T18:15:48.248Z,17.20
2022-09-03T18:18:29.242Z,17.10
2022-09-03T18:21:29.028Z,17.00
2022-09-03T18:24:23.795Z,16.90
2022-09-03T18:27:19.886Z,16.80
2022-09-03T18:30:26.255Z,16.80
2022-09-03T18:33:11.805Z,16.70
2022-09-03T18:35:57.172Z,16.70
2022-09-03T18:38:46.917Z,16.60
2022-09-03T18:41:47.426Z,16.60
2022-09-03T18:44:36.501Z,16.50
2022-09-03T18:48:05.449Z,16.40
2022-09-03T18:51:16.011Z,16.40
2022-09-03T18:54:19.506Z,16.40
2022-09-03T18:57:09.168Z,16.30
2022-09-03T19:00:28.926Z,16.40
2022-09-03T19:03:22.968Z,16.30
2022-09-03T19:06:14.705Z,16.30
2022-09-03T19:09:13.539Z,16.40
2022-09-03T19:12:12.891Z,16.30
2022-09-03T19:15:07.842Z,16.30
2022-09-03T19:18:28.748Z,16.30
2022-09-03T19:21:17.454Z,16.30
2022-09-03T19:24:02.846Z,16.30
2022-09-03T19:27:14.039Z,16.20
2022-09-03T19:30:34.684Z,16.20
2022-09-03T19:33:47.880Z,16.20
2022-09-03T19:36:42.218Z,16.10
2022-09-03T19:39:46.651Z,16.10
2022-09-03T19:42:45.077Z,16.10
2022-09-03T19:45:58.937Z,16.00
2022-09-03T19:49:07.077Z,16.10
2022-09-03T19:52:09.277Z,16.10
2022-09-03T19:54:57.836Z,16.00
2022-09-03T19:57:43.533Z,16.80
2022-09-03T20:00:33.314Z,16.30
2022-09-03T20:03:19.003Z,16.00
2022-09-03T20:06:08.845Z,16.00
2022-09-03T20:08:56.594Z,16.00
2022-09-03T20:11:24.017Z,16.00
2022-09-03T20:14:09.502Z,16.00
2022-09-03T20:16:52.219Z,15.90
2022-09-03T20:19:37.832Z,15.90
2022-09-03T20:22:23.788Z,15.90
2022-09-03T20:24:59.848Z,17.30
2022-09-03T20:27:52.317Z,15.90
2022-09-03T20:30:22.335Z,15.80
2022-09-03T20:33:19.132Z,15.80
2022-09-03T20:36:01.862Z,15.80
2022-09-03T20:38:40.650Z,15.70
2022-09-03T20:41:19.883Z,15.70
2022-09-03T20:44:13.813Z,15.70
2022-09-03T20:47:02.037Z,15.60
2022-09-03T20:49:44.667Z,15.60
2022-09-03T20:52:20.209Z,15.50
2022-09-03T20:54:59.662Z,15.50
2022-09-03T20:57:34.299Z,15.50
2022-09-03T21:00:15.260Z,15.50
2022-09-03T21:03:03.824Z,15.50
2022-09-03T21:05:42.854Z,15.50
2022-09-03T21:08:53.530Z,15.50
2022-09-03T21:11:32.618Z,15.50
2022-09-03T21:14:23.905Z,15.50
2022-09-03T21:16:53.887Z,15.50
2022-09-03T21:19:25.723Z,15.40
2022-09-03T21:22:17.366Z,15.40
2022-09-03T21:24:54.841Z,15.40
2022-09-03T21:27:24.369Z,15.30
2022-09-03T21:30:08.501Z,15.30
2022-09-03T21:32:45.218Z,15.30
2022-09-03T21:35:23.775Z,15.30
2022-09-03T21:38:15.829Z,15.30
2022-09-03T21:41:10.511Z,15.30
2022-09-03T21:43:57.622Z,15.30
2022-09-03T21:46:47.571Z,15.20
2022-09-03T21:49:16.819Z,15.20
2022-09-03T21:51:59.806Z,15.30
2022-09-03T21:54:35.933Z,15.30
2022-09-03T21:57:05.614Z,15.20
2022-09-03T21:59:53.976Z,15.20
2022-09-03T22:02:25.478Z,15.20
2022-09-03T22:04:52.912Z,15.20
2022-09-03T22:08:02.161Z,15.30
2022-09-03T22:10:53.919Z,15.20
2022-09-03T22:13:32.768Z,15.20
2022-09-03T22:16:13.775Z,15.20
2022-09-03T22:18:40.744Z,15.20
2022-09-03T22:21:11.425Z,15.20
2022-09-03T22:24:07.241Z,15.10
2022-09-03T22:26:51.331Z,15.10
2022-09-03T22:29:26.904Z,15.10
2022-09-03T22:32:05.684Z,15.10
2022-09-03T22:34:39.757Z,15.10
2022-09-03T22:37:11.222Z,15.10
2022-09-03T22:39:43.571Z,15.10
2022-09-03T22:42:22.519Z,15.10
2022-09-03T22:45:02.448Z,15.10
2022-09-03T22:47:54.324Z,15.00
2022-09-03T22:54:39.961Z,15.00
2022-09-03T22:57:06.803Z,15.00
2022-09-03T22:59:37.511Z,14.90
2022-09-03T23:02:18.682Z,14.90
2022-09-03T23:04:55.861Z,14.90
2022-09-03T23:07:24.604Z,14.90
2022-09-03T23:10:00.647Z,16.70
2022-09-03T23:12:41.401Z,14.90
2022-09-03T23:15:11.490Z,14.80
2022-09-03T23:17:45.042Z,14.80
2022-09-03T23:20:30.028Z,14.90
2022-09-03T23:23:18.321Z,14.80
2022-09-03T23:25:51.303Z,14.80
2022-09-03T23:28:26.050Z,14.80
2022-09-03T23:30:52.976Z,14.80
2022-09-03T23:33:19.807Z,14.80
2022-09-03T23:35:52.269Z,14.80
2022-09-03T23:38:38.076Z,14.80
2022-09-03T23:41:07.571Z,14.70
2022-09-03T23:44:25.722Z,14.70
2022-09-03T23:47:04.522Z,14.70
2022-09-03T23:49:40.491Z,16.30
2022-09-03T23:52:19.104Z,14.70
2022-09-03T23:55:08.554Z,14.70
2022-09-03T23:57:45.817Z,14.70
